sensor_id;sensor_type;location;lat;lon;timestamp;temperature;humidity
32139;DHT22;18644;48.700;9.210;2023-04-06T00:01:10;3.90;47.70
32139;DHT22;18644;48.700;9.210;2023-04-06T00:03:37;3.90;47.70
32139;DHT22;18644;48.700;9.210;2023-04-06T00:06:04;3.90;47.70
32139;DHT22;18644;48.700;9.210;2023-04-06T00:08:33;3.80;47.80
32139;DHT22;18644;48.700;9.210;2023-04-06T00:10:59;3.80;47.90
32139;DHT22;18644;48.700;9.210;2023-04-06T00:13:26;3.70;48.00
32139;DHT22;18644;48.700;9.210;2023-04-06T00:15:53;3.70;48.20
32139;DHT22;18644;48.700;9.210;2023-04-06T00:18:20;3.60;48.20
32139;DHT22;18644;48.700;9.210;2023-04-06T00:20:47;3.60;48.30
32139;DHT22;18644;48.700;9.210;2023-04-06T00:23:14;3.50;48.40
32139;DHT22;18644;48.700;9.210;2023-04-06T00:25:42;3.50;48.50
32139;DHT22;18644;48.700;9.210;2023-04-06T00:28:09;3.40;48.60
32139;DHT22;18644;48.700;9.210;2023-04-06T00:30:36;3.40;48.60
32139;DHT22;18644;48.700;9.210;2023-04-06T00:33:03;3.30;48.60
32139;DHT22;18644;48.700;9.210;2023-04-06T00:35:30;3.30;48.60
32139;DHT22;18644;48.700;9.210;2023-04-06T00:37:57;3.20;48.70
32139;DHT22;18644;48.700;9.210;2023-04-06T00:40:24;3.20;48.80
32139;DHT22;18644;48.700;9.210;2023-04-06T00:42:54;3.20;49.50
32139;DHT22;18644;48.700;9.210;2023-04-06T00:45:21;3.10;49.00
32139;DHT22;18644;48.700;9.210;2023-04-06T00:47:48;3.10;49.10
32139;DHT22;18644;48.700;9.210;2023-04-06T00:50:15;3.10;49.20
32139;DHT22;18644;48.700;9.210;2023-04-06T00:52:41;3.00;49.30
32139;DHT22;18644;48.700;9.210;2023-04-06T00:55:09;3.00;49.40
32139;DHT22;18644;48.700;9.210;2023-04-06T00:57:36;3.00;49.50
32139;DHT22;18644;48.700;9.210;2023-04-06T01:00:05;2.90;49.50
32139;DHT22;18644;48.700;9.210;2023-04-06T01:02:33;2.90;49.60
32139;DHT22;18644;48.700;9.210;2023-04-06T01:05:00;2.90;49.60
32139;DHT22;18644;48.700;9.210;2023-04-06T01:07:27;2.90;49.70
32139;DHT22;18644;48.700;9.210;2023-04-06T01:09:54;2.80;49.70
32139;DHT22;18644;48.700;9.210;2023-04-06T01:12:21;2.80;49.80
32139;DHT22;18644;48.700;9.210;2023-04-06T01:14:48;2.80;49.80
32139;DHT22;18644;48.700;9.210;2023-04-06T01:17:16;2.80;49.90
32139;DHT22;18644;48.700;9.210;2023-04-06T01:19:43;2.80;50.20
32139;DHT22;18644;48.700;9.210;2023-04-06T01:22:15;2.70;50.10
32139;DHT22;18644;48.700;9.210;2023-04-06T01:24:42;2.70;50.30
32139;DHT22;18644;48.700;9.210;2023-04-06T01:27:09;2.70;50.40
32139;DHT22;18644;48.700;9.210;2023-04-06T01:29:37;2.70;50.60
32139;DHT22;18644;48.700;9.210;2023-04-06T01:32:07;2.70;50.70
32139;DHT22;18644;48.700;9.210;2023-04-06T01:34:34;2.70;50.60
32139;DHT22;18644;48.700;9.210;2023-04-06T01:37:01;2.70;50.60
32139;DHT22;18644;48.700;9.210;2023-04-06T01:39:29;2.70;50.60
32139;DHT22;18644;48.700;9.210;2023-04-06T01:41:56;2.60;50.50
32139;DHT22;18644;48.700;9.210;2023-04-06T01:44:23;2.60;50.60
32139;DHT22;18644;48.700;9.210;2023-04-06T01:46:50;2.60;50.60
32139;DHT22;18644;48.700;9.210;2023-04-06T01:49:17;2.60;50.60
32139;DHT22;18644;48.700;9.210;2023-04-06T01:51:44;2.60;50.80
32139;DHT22;18644;48.700;9.210;2023-04-06T01:54:10;2.50;50.80
32139;DHT22;18644;48.700;9.210;2023-04-06T01:56:39;2.50;50.90
32139;DHT22;18644;48.700;9.210;2023-04-06T01:59:06;2.50;50.90
32139;DHT22;18644;48.700;9.210;2023-04-06T02:01:33;2.50;51.00
32139;DHT22;18644;48.700;9.210;2023-04-06T02:04:00;2.50;51.60
32139;DHT22;18644;48.700;9.210;2023-04-06T02:06:27;2.40;51.00
32139;DHT22;18644;48.700;9.210;2023-04-06T02:08:53;2.40;51.00
32139;DHT22;18644;48.700;9.210;2023-04-06T02:11:20;2.40;51.10
32139;DHT22;18644;48.700;9.210;2023-04-06T02:13:48;2.40;51.10
32139;DHT22;18644;48.700;9.210;2023-04-06T02:16:15;2.30;51.10
32139;DHT22;18644;48.700;9.210;2023-04-06T02:18:42;2.30;51.20
32139;DHT22;18644;48.700;9.210;2023-04-06T02:21:09;2.20;51.20
32139;DHT22;18644;48.700;9.210;2023-04-06T02:23:36;2.30;51.40
32139;DHT22;18644;48.700;9.210;2023-04-06T02:26:03;2.20;51.50
32139;DHT22;18644;48.700;9.210;2023-04-06T02:28:30;2.20;51.50
32139;DHT22;18644;48.700;9.210;2023-04-06T02:30:58;2.20;51.50
32139;DHT22;18644;48.700;9.210;2023-04-06T02:33:25;2.10;51.50
32139;DHT22;18644;48.700;9.210;2023-04-06T02:35:52;2.10;51.60
32139;DHT22;18644;48.700;9.210;2023-04-06T02:38:19;2.10;51.70
32139;DHT22;18644;48.700;9.210;2023-04-06T02:40:46;2.00;51.70
32139;DHT22;18644;48.700;9.210;2023-04-06T02:43:12;2.00;51.70
32139;DHT22;18644;48.700;9.210;2023-04-06T02:45:40;2.00;51.70
32139;DHT22;18644;48.700;9.210;2023-04-06T02:48:08;2.00;51.70
32139;DHT22;18644;48.700;9.210;2023-04-06T02:50:35;1.90;51.60
32139;DHT22;18644;48.700;9.210;2023-04-06T02:53:02;1.90;51.70
32139;DHT22;18644;48.700;9.210;2023-04-06T02:55:29;1.90;51.80
32139;DHT22;18644;48.700;9.210;2023-04-06T02:57:56;1.90;51.80
32139;DHT22;18644;48.700;9.210;2023-04-06T03:00:23;1.80;51.80
32139;DHT22;18644;48.700;9.210;2023-04-06T03:02:50;1.80;51.70
32139;DHT22;18644;48.700;9.210;2023-04-06T03:05:18;1.80;51.80
32139;DHT22;18644;48.700;9.210;2023-04-06T03:07:45;1.80;51.80
32139;DHT22;18644;48.700;9.210;2023-04-06T03:10:12;1.80;51.90
32139;DHT22;18644;48.700;9.210;2023-04-06T03:12:39;1.70;51.90
32139;DHT22;18644;48.700;9.210;2023-04-06T03:15:08;1.70;51.90
32139;DHT22;18644;48.700;9.210;2023-04-06T03:17:35;1.70;52.10
32139;DHT22;18644;48.700;9.210;2023-04-06T03:20:03;1.60;52.10
32139;DHT22;18644;48.700;9.210;2023-04-06T03:22:31;1.60;52.10
32139;DHT22;18644;48.700;9.210;2023-04-06T03:24:58;1.60;52.20
32139;DHT22;18644;48.700;9.210;2023-04-06T03:27:25;1.60;52.20
32139;DHT22;18644;48.700;9.210;2023-04-06T03:29:52;1.60;52.20
32139;DHT22;18644;48.700;9.210;2023-04-06T03:32:19;1.50;52.20
32139;DHT22;18644;48.700;9.210;2023-04-06T03:34:47;1.50;52.20
32139;DHT22;18644;48.700;9.210;2023-04-06T03:37:14;1.50;52.30
32139;DHT22;18644;48.700;9.210;2023-04-06T03:39:42;1.50;52.30
32139;DHT22;18644;48.700;9.210;2023-04-06T03:42:09;1.50;52.30
32139;DHT22;18644;48.700;9.210;2023-04-06T03:44:36;1.50;52.30
32139;DHT22;18644;48.700;9.210;2023-04-06T03:47:03;1.40;52.30
32139;DHT22;18644;48.700;9.210;2023-04-06T03:49:30;1.40;53.00
32139;DHT22;18644;48.700;9.210;2023-04-06T03:51:57;1.40;52.60
32139;DHT22;18644;48.700;9.210;2023-04-06T03:54:24;1.40;52.70
32139;DHT22;18644;48.700;9.210;2023-04-06T03:56:52;1.40;52.80
32139;DHT22;18644;48.700;9.210;2023-04-06T03:59:19;1.30;52.80
32139;DHT22;18644;48.700;9.210;2023-04-06T04:01:46;1.30;52.80
32139;DHT22;18644;48.700;9.210;2023-04-06T04:04:13;1.30;52.80
32139;DHT22;18644;48.700;9.210;2023-04-06T04:06:42;1.30;52.90
32139;DHT22;18644;48.700;9.210;2023-04-06T04:09:09;1.30;52.90
32139;DHT22;18644;48.700;9.210;2023-04-06T04:11:36;1.20;52.90
32139;DHT22;18644;48.700;9.210;2023-04-06T04:14:04;1.20;52.90
32139;DHT22;18644;48.700;9.210;2023-04-06T04:16:31;1.20;53.00
32139;DHT22;18644;48.700;9.210;2023-04-06T04:18:58;1.20;53.00
32139;DHT22;18644;48.700;9.210;2023-04-06T04:21:25;1.20;53.00
32139;DHT22;18644;48.700;9.210;2023-04-06T04:23:55;1.20;53.20
32139;DHT22;18644;48.700;9.210;2023-04-06T04:26:22;1.20;52.60
32139;DHT22;18644;48.700;9.210;2023-04-06T04:28:49;1.20;53.00
32139;DHT22;18644;48.700;9.210;2023-04-06T04:31:17;1.10;53.00
32139;DHT22;18644;48.700;9.210;2023-04-06T04:33:45;1.10;53.10
32139;DHT22;18644;48.700;9.210;2023-04-06T04:36:12;1.10;53.10
32139;DHT22;18644;48.700;9.210;2023-04-06T04:38:39;1.10;53.20
32139;DHT22;18644;48.700;9.210;2023-04-06T04:41:06;1.10;53.30
32139;DHT22;18644;48.700;9.210;2023-04-06T04:43:32;1.00;53.30
32139;DHT22;18644;48.700;9.210;2023-04-06T04:45:59;1.00;53.30
32139;DHT22;18644;48.700;9.210;2023-04-06T04:48:28;1.00;53.50
32139;DHT22;18644;48.700;9.210;2023-04-06T04:50:54;1.00;53.60
32139;DHT22;18644;48.700;9.210;2023-04-06T04:53:21;1.00;53.60
32139;DHT22;18644;48.700;9.210;2023-04-06T04:55:48;1.00;53.60
32139;DHT22;18644;48.700;9.210;2023-04-06T04:58:15;1.00;53.60
32139;DHT22;18644;48.700;9.210;2023-04-06T05:00:44;1.00;53.60
32139;DHT22;18644;48.700;9.210;2023-04-06T05:03:16;1.00;53.50
32139;DHT22;18644;48.700;9.210;2023-04-06T05:05:47;1.00;53.50
32139;DHT22;18644;48.700;9.210;2023-04-06T05:08:15;1.00;53.50
32139;DHT22;18644;48.700;9.210;2023-04-06T05:10:42;1.00;53.60
32139;DHT22;18644;48.700;9.210;2023-04-06T05:13:09;0.90;53.60
32139;DHT22;18644;48.700;9.210;2023-04-06T05:15:36;0.90;53.70
32139;DHT22;18644;48.700;9.210;2023-04-06T05:18:05;1.00;53.90
32139;DHT22;18644;48.700;9.210;2023-04-06T05:20:32;1.00;54.10
32139;DHT22;18644;48.700;9.210;2023-04-06T05:23:01;1.00;54.20
32139;DHT22;18644;48.700;9.210;2023-04-06T05:25:28;1.00;54.20
32139;DHT22;18644;48.700;9.210;2023-04-06T05:27:55;1.00;54.20
32139;DHT22;18644;48.700;9.210;2023-04-06T05:30:22;1.00;54.30
32139;DHT22;18644;48.700;9.210;2023-04-06T05:32:50;1.10;54.40
32139;DHT22;18644;48.700;9.210;2023-04-06T05:35:17;1.10;54.60
32139;DHT22;18644;48.700;9.210;2023-04-06T05:37:44;1.20;54.80
32139;DHT22;18644;48.700;9.210;2023-04-06T05:40:12;1.20;54.80
32139;DHT22;18644;48.700;9.210;2023-04-06T05:42:39;1.30;54.90
32139;DHT22;18644;48.700;9.210;2023-04-06T05:45:09;1.40;54.90
32139;DHT22;18644;48.700;9.210;2023-04-06T05:47:42;1.50;55.10
32139;DHT22;18644;48.700;9.210;2023-04-06T05:50:09;1.50;55.10
32139;DHT22;18644;48.700;9.210;2023-04-06T05:52:36;1.60;55.10
32139;DHT22;18644;48.700;9.210;2023-04-06T05:55:04;1.60;55.10
32139;DHT22;18644;48.700;9.210;2023-04-06T05:57:32;1.70;55.10
32139;DHT22;18644;48.700;9.210;2023-04-06T05:59:59;1.80;55.20
32139;DHT22;18644;48.700;9.210;2023-04-06T06:02:26;1.90;55.30
32139;DHT22;18644;48.700;9.210;2023-04-06T06:04:53;2.00;55.30
32139;DHT22;18644;48.700;9.210;2023-04-06T06:07:20;2.10;55.40
32139;DHT22;18644;48.700;9.210;2023-04-06T06:09:47;2.20;55.40
32139;DHT22;18644;48.700;9.210;2023-04-06T06:12:14;2.30;55.30
32139;DHT22;18644;48.700;9.210;2023-04-06T06:14:42;2.30;55.30
32139;DHT22;18644;48.700;9.210;2023-04-06T06:17:10;2.40;55.30
32139;DHT22;18644;48.700;9.210;2023-04-06T06:19:37;2.50;55.40
32139;DHT22;18644;48.700;9.210;2023-04-06T06:22:04;2.60;55.40
32139;DHT22;18644;48.700;9.210;2023-04-06T06:24:31;2.70;55.50
32139;DHT22;18644;48.700;9.210;2023-04-06T06:26:59;2.80;55.50
32139;DHT22;18644;48.700;9.210;2023-04-06T06:29:27;3.00;55.50
32139;DHT22;18644;48.700;9.210;2023-04-06T06:32:05;3.10;55.60
32139;DHT22;18644;48.700;9.210;2023-04-06T06:34:37;3.30;55.80
32139;DHT22;18644;48.700;9.210;2023-04-06T06:37:05;3.40;55.80
32139;DHT22;18644;48.700;9.210;2023-04-06T06:39:33;3.50;55.80
32139;DHT22;18644;48.700;9.210;2023-04-06T06:42:01;3.70;55.70
32139;DHT22;18644;48.700;9.210;2023-04-06T06:44:28;3.80;55.70
32139;DHT22;18644;48.700;9.210;2023-04-06T06:46:55;4.00;55.70
32139;DHT22;18644;48.700;9.210;2023-04-06T06:49:23;4.10;55.60
32139;DHT22;18644;48.700;9.210;2023-04-06T06:51:50;4.30;55.60
32139;DHT22;18644;48.700;9.210;2023-04-06T06:54:17;4.50;55.60
32139;DHT22;18644;48.700;9.210;2023-04-06T06:56:44;4.70;55.50
32139;DHT22;18644;48.700;9.210;2023-04-06T06:59:14;4.80;55.20
32139;DHT22;18644;48.700;9.210;2023-04-06T07:01:43;5.00;55.10
32139;DHT22;18644;48.700;9.210;2023-04-06T07:04:10;5.20;55.10
32139;DHT22;18644;48.700;9.210;2023-04-06T07:06:38;5.30;55.10
32139;DHT22;18644;48.700;9.210;2023-04-06T07:09:05;5.50;55.20
32139;DHT22;18644;48.700;9.210;2023-04-06T07:11:32;5.60;55.10
32139;DHT22;18644;48.700;9.210;2023-04-06T07:13:59;5.80;54.80
32139;DHT22;18644;48.700;9.210;2023-04-06T07:16:26;6.00;54.80
32139;DHT22;18644;48.700;9.210;2023-04-06T07:18:53;6.20;54.70
32139;DHT22;18644;48.700;9.210;2023-04-06T07:21:21;6.40;54.70
32139;DHT22;18644;48.700;9.210;2023-04-06T07:23:49;6.50;54.60
32139;DHT22;18644;48.700;9.210;2023-04-06T07:26:16;6.80;54.60
32139;DHT22;18644;48.700;9.210;2023-04-06T07:28:43;6.90;54.40
32139;DHT22;18644;48.700;9.210;2023-04-06T07:31:10;7.10;54.40
32139;DHT22;18644;48.700;9.210;2023-04-06T07:33:36;7.30;54.40
32139;DHT22;18644;48.700;9.210;2023-04-06T07:36:04;7.40;54.30
32139;DHT22;18644;48.700;9.210;2023-04-06T07:38:31;7.60;53.90
32139;DHT22;18644;48.700;9.210;2023-04-06T07:41:00;7.80;53.60
32139;DHT22;18644;48.700;9.210;2023-04-06T07:43:29;8.00;53.70
32139;DHT22;18644;48.700;9.210;2023-04-06T07:45:56;8.20;53.70
32139;DHT22;18644;48.700;9.210;2023-04-06T07:48:25;8.30;53.30
32139;DHT22;18644;48.700;9.210;2023-04-06T07:50:51;8.50;52.80
32139;DHT22;18644;48.700;9.210;2023-04-06T07:53:18;8.60;52.60
32139;DHT22;18644;48.700;9.210;2023-04-06T07:55:45;8.80;52.20
32139;DHT22;18644;48.700;9.210;2023-04-06T07:58:13;9.00;52.00
32139;DHT22;18644;48.700;9.210;2023-04-06T08:00:41;9.20;51.70
32139;DHT22;18644;48.700;9.210;2023-04-06T08:03:07;9.40;51.10
32139;DHT22;18644;48.700;9.210;2023-04-06T08:05:34;9.50;50.80
32139;DHT22;18644;48.700;9.210;2023-04-06T08:08:01;9.70;50.60
32139;DHT22;18644;48.700;9.210;2023-04-06T08:10:28;9.90;50.50
32139;DHT22;18644;48.700;9.210;2023-04-06T08:12:55;10.00;50.10
32139;DHT22;18644;48.700;9.210;2023-04-06T08:15:24;10.20;49.70
32139;DHT22;18644;48.700;9.210;2023-04-06T08:17:50;10.40;49.60
32139;DHT22;18644;48.700;9.210;2023-04-06T08:20:17;10.60;49.60
32139;DHT22;18644;48.700;9.210;2023-04-06T08:22:44;10.80;49.50
32139;DHT22;18644;48.700;9.210;2023-04-06T08:25:11;11.00;49.20
32139;DHT22;18644;48.700;9.210;2023-04-06T08:27:38;11.20;49.10
32139;DHT22;18644;48.700;9.210;2023-04-06T08:30:05;11.40;48.80
32139;DHT22;18644;48.700;9.210;2023-04-06T08:32:34;11.60;48.30
32139;DHT22;18644;48.700;9.210;2023-04-06T08:35:01;11.70;47.90
32139;DHT22;18644;48.700;9.210;2023-04-06T08:37:28;11.90;47.70
32139;DHT22;18644;48.700;9.210;2023-04-06T08:39:55;12.10;47.60
32139;DHT22;18644;48.700;9.210;2023-04-06T08:42:25;12.30;47.10
32139;DHT22;18644;48.700;9.210;2023-04-06T08:44:52;12.40;46.60
32139;DHT22;18644;48.700;9.210;2023-04-06T08:47:20;12.60;46.40
32139;DHT22;18644;48.700;9.210;2023-04-06T08:49:49;12.70;46.10
32139;DHT22;18644;48.700;9.210;2023-04-06T08:52:18;12.90;46.10
32139;DHT22;18644;48.700;9.210;2023-04-06T08:54:45;13.00;45.40
32139;DHT22;18644;48.700;9.210;2023-04-06T08:57:12;13.20;45.30
32139;DHT22;18644;48.700;9.210;2023-04-06T08:59:40;13.30;45.20
32139;DHT22;18644;48.700;9.210;2023-04-06T09:02:12;13.50;45.10
32139;DHT22;18644;48.700;9.210;2023-04-06T09:04:44;13.60;44.90
32139;DHT22;18644;48.700;9.210;2023-04-06T09:07:14;13.80;44.60
32139;DHT22;18644;48.700;9.210;2023-04-06T09:09:41;14.00;44.10
32139;DHT22;18644;48.700;9.210;2023-04-06T09:12:22;14.10;44.00
32139;DHT22;18644;48.700;9.210;2023-04-06T09:14:50;14.20;43.70
32139;DHT22;18644;48.700;9.210;2023-04-06T09:17:21;14.40;43.70
32139;DHT22;18644;48.700;9.210;2023-04-06T09:19:48;14.50;43.20
32139;DHT22;18644;48.700;9.210;2023-04-06T09:22:17;14.60;43.50
32139;DHT22;18644;48.700;9.210;2023-04-06T09:24:46;14.70;43.60
32139;DHT22;18644;48.700;9.210;2023-04-06T09:27:14;14.80;43.40
32139;DHT22;18644;48.700;9.210;2023-04-06T09:29:42;15.00;43.50
32139;DHT22;18644;48.700;9.210;2023-04-06T09:32:10;15.20;43.10
32139;DHT22;18644;48.700;9.210;2023-04-06T09:34:38;15.30;42.60
32139;DHT22;18644;48.700;9.210;2023-04-06T09:37:14;15.40;42.50
32139;DHT22;18644;48.700;9.210;2023-04-06T09:39:43;15.60;41.90
32139;DHT22;18644;48.700;9.210;2023-04-06T09:42:12;15.70;41.90
32139;DHT22;18644;48.700;9.210;2023-04-06T09:44:50;15.80;41.50
32139;DHT22;18644;48.700;9.210;2023-04-06T09:47:17;15.90;41.30
32139;DHT22;18644;48.700;9.210;2023-04-06T09:49:46;16.00;41.20
32139;DHT22;18644;48.700;9.210;2023-04-06T09:52:14;16.10;41.20
32139;DHT22;18644;48.700;9.210;2023-04-06T09:54:45;16.20;40.80
32139;DHT22;18644;48.700;9.210;2023-04-06T09:57:20;16.20;39.80
32139;DHT22;18644;48.700;9.210;2023-04-06T09:59:58;16.40;39.00
32139;DHT22;18644;48.700;9.210;2023-04-06T10:02:37;16.50;39.40
32139;DHT22;18644;48.700;9.210;2023-04-06T10:05:09;16.50;39.60
32139;DHT22;18644;48.700;9.210;2023-04-06T10:07:44;16.60;39.10
32139;DHT22;18644;48.700;9.210;2023-04-06T10:10:12;16.80;39.20
32139;DHT22;18644;48.700;9.210;2023-04-06T10:12:41;16.90;38.70
32139;DHT22;18644;48.700;9.210;2023-04-06T10:15:10;17.00;38.00
32139;DHT22;18644;48.700;9.210;2023-04-06T10:17:37;17.10;37.80
32139;DHT22;18644;48.700;9.210;2023-04-06T10:20:07;17.20;36.80
32139;DHT22;18644;48.700;9.210;2023-04-06T10:22:43;17.30;37.00
32139;DHT22;18644;48.700;9.210;2023-04-06T10:25:16;17.40;35.80
32139;DHT22;18644;48.700;9.210;2023-04-06T10:27:43;17.40;35.70
32139;DHT22;18644;48.700;9.210;2023-04-06T10:30:10;17.40;35.40
32139;DHT22;18644;48.700;9.210;2023-04-06T10:32:38;17.50;35.60
32139;DHT22;18644;48.700;9.210;2023-04-06T10:35:10;17.50;35.50
32139;DHT22;18644;48.700;9.210;2023-04-06T10:37:50;17.50;34.90
32139;DHT22;18644;48.700;9.210;2023-04-06T10:40:19;17.60;33.60
32139;DHT22;18644;48.700;9.210;2023-04-06T10:42:51;17.70;34.10
32139;DHT22;18644;48.700;9.210;2023-04-06T10:45:20;17.70;33.90
32139;DHT22;18644;48.700;9.210;2023-04-06T10:47:48;17.70;33.70
32139;DHT22;18644;48.700;9.210;2023-04-06T10:50:16;17.80;33.90
32139;DHT22;18644;48.700;9.210;2023-04-06T10:52:44;17.90;34.60
32139;DHT22;18644;48.700;9.210;2023-04-06T10:55:13;18.00;34.70
32139;DHT22;18644;48.700;9.210;2023-04-06T10:57:42;18.10;34.00
32139;DHT22;18644;48.700;9.210;2023-04-06T11:00:12;18.20;33.90
32139;DHT22;18644;48.700;9.210;2023-04-06T11:02:39;18.30;33.10
32139;DHT22;18644;48.700;9.210;2023-04-06T11:05:07;18.50;33.40
32139;DHT22;18644;48.700;9.210;2023-04-06T11:07:34;18.50;33.10
32139;DHT22;18644;48.700;9.210;2023-04-06T11:10:01;18.60;33.10
32139;DHT22;18644;48.700;9.210;2023-04-06T11:12:30;18.60;33.10
32139;DHT22;18644;48.700;9.210;2023-04-06T11:14:58;18.70;33.40
32139;DHT22;18644;48.700;9.210;2023-04-06T11:17:30;18.80;33.00
32139;DHT22;18644;48.700;9.210;2023-04-06T11:19:58;18.90;33.40
32139;DHT22;18644;48.700;9.210;2023-04-06T11:22:25;19.00;33.50
32139;DHT22;18644;48.700;9.210;2023-04-06T11:24:52;19.10;33.30
32139;DHT22;18644;48.700;9.210;2023-04-06T11:27:20;19.30;33.20
32139;DHT22;18644;48.700;9.210;2023-04-06T11:29:49;19.40;33.10
32139;DHT22;18644;48.700;9.210;2023-04-06T11:32:22;19.60;32.90
32139;DHT22;18644;48.700;9.210;2023-04-06T11:34:49;19.70;33.00
32139;DHT22;18644;48.700;9.210;2023-04-06T11:37:16;19.90;33.10
32139;DHT22;18644;48.700;9.210;2023-04-06T11:39:47;20.00;32.80
32139;DHT22;18644;48.700;9.210;2023-04-06T11:42:21;20.20;31.70
32139;DHT22;18644;48.700;9.210;2023-04-06T11:44:51;20.30;31.30
32139;DHT22;18644;48.700;9.210;2023-04-06T11:47:20;20.40;31.10
32139;DHT22;18644;48.700;9.210;2023-04-06T11:49:54;20.50;30.70
32139;DHT22;18644;48.700;9.210;2023-04-06T11:52:23;20.60;30.50
32139;DHT22;18644;48.700;9.210;2023-04-06T11:54:52;20.60;29.80
32139;DHT22;18644;48.700;9.210;2023-04-06T11:57:22;20.60;29.80
32139;DHT22;18644;48.700;9.210;2023-04-06T11:59:51;20.60;30.40
32139;DHT22;18644;48.700;9.210;2023-04-06T12:02:19;20.70;30.40
32139;DHT22;18644;48.700;9.210;2023-04-06T12:04:46;20.70;30.30
32139;DHT22;18644;48.700;9.210;2023-04-06T12:07:12;20.70;29.70
32139;DHT22;18644;48.700;9.210;2023-04-06T12:09:40;20.70;29.10
32139;DHT22;18644;48.700;9.210;2023-04-06T12:12:06;20.70;28.70
32139;DHT22;18644;48.700;9.210;2023-04-06T12:14:33;20.60;28.70
32139;DHT22;18644;48.700;9.210;2023-04-06T12:17:02;20.60;27.90
32139;DHT22;18644;48.700;9.210;2023-04-06T12:19:29;20.50;27.80
32139;DHT22;18644;48.700;9.210;2023-04-06T12:21:57;20.40;28.30
32139;DHT22;18644;48.700;9.210;2023-04-06T12:24:23;20.40;28.90
32139;DHT22;18644;48.700;9.210;2023-04-06T12:26:50;20.40;29.30
32139;DHT22;18644;48.700;9.210;2023-04-06T12:29:17;20.50;29.50
32139;DHT22;18644;48.700;9.210;2023-04-06T12:31:44;20.50;29.60
32139;DHT22;18644;48.700;9.210;2023-04-06T12:34:13;20.60;29.70
32139;DHT22;18644;48.700;9.210;2023-04-06T12:36:40;20.70;29.10
32139;DHT22;18644;48.700;9.210;2023-04-06T12:39:07;20.80;29.10
32139;DHT22;18644;48.700;9.210;2023-04-06T12:41:34;20.80;29.90
32139;DHT22;18644;48.700;9.210;2023-04-06T12:44:01;20.90;29.50
32139;DHT22;18644;48.700;9.210;2023-04-06T12:46:28;21.00;29.40
32139;DHT22;18644;48.700;9.210;2023-04-06T12:48:56;21.10;29.30
32139;DHT22;18644;48.700;9.210;2023-04-06T12:51:27;21.20;28.90
32139;DHT22;18644;48.700;9.210;2023-04-06T12:53:54;21.30;28.80
32139;DHT22;18644;48.700;9.210;2023-04-06T12:56:21;21.40;29.00
32139;DHT22;18644;48.700;9.210;2023-04-06T12:58:49;21.50;28.80
32139;DHT22;18644;48.700;9.210;2023-04-06T13:01:17;21.60;27.90
32139;DHT22;18644;48.700;9.210;2023-04-06T13:03:44;21.50;27.70
32139;DHT22;18644;48.700;9.210;2023-04-06T13:06:11;21.50;27.80
32139;DHT22;18644;48.700;9.210;2023-04-06T13:08:39;21.60;27.70
32139;DHT22;18644;48.700;9.210;2023-04-06T13:11:07;21.50;27.80
32139;DHT22;18644;48.700;9.210;2023-04-06T13:13:34;21.60;28.10
32139;DHT22;18644;48.700;9.210;2023-04-06T13:16:03;21.60;27.50
32139;DHT22;18644;48.700;9.210;2023-04-06T13:18:31;21.60;27.50
32139;DHT22;18644;48.700;9.210;2023-04-06T13:20:59;21.70;27.90
32139;DHT22;18644;48.700;9.210;2023-04-06T13:23:27;21.80;28.10
32139;DHT22;18644;48.700;9.210;2023-04-06T13:26:00;21.90;28.20
32139;DHT22;18644;48.700;9.210;2023-04-06T13:28:28;22.00;28.10
32139;DHT22;18644;48.700;9.210;2023-04-06T13:30:57;22.10;28.10
32139;DHT22;18644;48.700;9.210;2023-04-06T13:33:27;22.20;27.50
32139;DHT22;18644;48.700;9.210;2023-04-06T13:35:57;22.20;27.50
32139;DHT22;18644;48.700;9.210;2023-04-06T13:38:25;22.20;26.90
32139;DHT22;18644;48.700;9.210;2023-04-06T13:40:52;22.20;27.00
32139;DHT22;18644;48.700;9.210;2023-04-06T13:43:23;22.10;26.90
32139;DHT22;18644;48.700;9.210;2023-04-06T13:45:54;22.00;26.60
32139;DHT22;18644;48.700;9.210;2023-04-06T13:48:29;21.80;26.30
32139;DHT22;18644;48.700;9.210;2023-04-06T13:50:56;21.70;26.00
32139;DHT22;18644;48.700;9.210;2023-04-06T13:53:24;21.70;26.10
32139;DHT22;18644;48.700;9.210;2023-04-06T13:55:54;21.60;26.10
32139;DHT22;18644;48.700;9.210;2023-04-06T13:58:29;21.50;25.90
32139;DHT22;18644;48.700;9.210;2023-04-06T14:01:02;21.40;26.20
32139;DHT22;18644;48.700;9.210;2023-04-06T14:03:30;21.30;26.20
32139;DHT22;18644;48.700;9.210;2023-04-06T14:05:57;21.30;26.30
32139;DHT22;18644;48.700;9.210;2023-04-06T14:08:24;21.20;26.00
32139;DHT22;18644;48.700;9.210;2023-04-06T14:10:51;21.20;26.00
32139;DHT22;18644;48.700;9.210;2023-04-06T14:13:19;21.10;26.40
32139;DHT22;18644;48.700;9.210;2023-04-06T14:15:52;21.10;26.50
32139;DHT22;18644;48.700;9.210;2023-04-06T14:18:20;21.00;26.00
32139;DHT22;18644;48.700;9.210;2023-04-06T14:20:53;21.00;26.10
32139;DHT22;18644;48.700;9.210;2023-04-06T14:23:21;21.00;26.20
32139;DHT22;18644;48.700;9.210;2023-04-06T14:25:48;21.00;26.50
32139;DHT22;18644;48.700;9.210;2023-04-06T14:28:15;21.00;26.60
32139;DHT22;18644;48.700;9.210;2023-04-06T14:30:42;20.90;26.50
32139;DHT22;18644;48.700;9.210;2023-04-06T14:33:11;20.90;26.00
32139;DHT22;18644;48.700;9.210;2023-04-06T14:35:38;20.90;25.80
32139;DHT22;18644;48.700;9.210;2023-04-06T14:38:06;20.80;25.80
32139;DHT22;18644;48.700;9.210;2023-04-06T14:40:35;20.80;25.70
32139;DHT22;18644;48.700;9.210;2023-04-06T14:43:03;20.70;25.30
32139;DHT22;18644;48.700;9.210;2023-04-06T14:45:33;20.70;25.60
32139;DHT22;18644;48.700;9.210;2023-04-06T14:48:02;20.70;25.50
32139;DHT22;18644;48.700;9.210;2023-04-06T14:50:33;20.70;25.30
32139;DHT22;18644;48.700;9.210;2023-04-06T14:53:00;20.60;25.00
32139;DHT22;18644;48.700;9.210;2023-04-06T14:55:27;20.60;25.10
32139;DHT22;18644;48.700;9.210;2023-04-06T14:57:54;20.60;25.50
32139;DHT22;18644;48.700;9.210;2023-04-06T15:00:21;20.60;25.50
32139;DHT22;18644;48.700;9.210;2023-04-06T15:02:48;20.50;25.00
32139;DHT22;18644;48.700;9.210;2023-04-06T15:05:16;20.50;25.10
32139;DHT22;18644;48.700;9.210;2023-04-06T15:07:44;20.50;25.20
32139;DHT22;18644;48.700;9.210;2023-04-06T15:10:11;20.40;24.90
32139;DHT22;18644;48.700;9.210;2023-04-06T15:12:38;20.40;24.70
32139;DHT22;18644;48.700;9.210;2023-04-06T15:15:05;20.30;24.80
32139;DHT22;18644;48.700;9.210;2023-04-06T15:17:33;20.20;24.40
32139;DHT22;18644;48.700;9.210;2023-04-06T15:20:00;20.10;23.80
32139;DHT22;18644;48.700;9.210;2023-04-06T15:22:27;19.90;24.00
32139;DHT22;18644;48.700;9.210;2023-04-06T15:24:56;19.70;23.40
32139;DHT22;18644;48.700;9.210;2023-04-06T15:27:23;19.50;23.70
32139;DHT22;18644;48.700;9.210;2023-04-06T15:29:51;19.30;23.90
32139;DHT22;18644;48.700;9.210;2023-04-06T15:32:18;19.10;24.20
32139;DHT22;18644;48.700;9.210;2023-04-06T15:34:45;19.00;24.50
32139;DHT22;18644;48.700;9.210;2023-04-06T15:37:12;18.90;24.70
32139;DHT22;18644;48.700;9.210;2023-04-06T15:39:39;18.80;24.90
32139;DHT22;18644;48.700;9.210;2023-04-06T15:42:07;18.70;25.00
32139;DHT22;18644;48.700;9.210;2023-04-06T15:44:34;18.70;25.00